Time;durP1;ratioP1;P1;durP2;ratioP2;P2;SDS_P1;SDS_P2;PMS_P1;PMS_P2;Temp;Humidity;BMP_temperature;BMP_pressure;BME280_temperature;BME280_humidity;BME280_pressure;Samples;Min_cycle;Max_cycle;Signal;HPM_P1;HPM_P2
2022/03/28 00:01:12;;;;;;;;;;;7.30;99.90;;;;;;5032561;28;19912;-56
2022/03/28 00:03:38;;;;;;;;;;;7.30;99.90;;;;;;5021874;28;19924;-54
2022/03/28 00:06:04;;;;;;;;;;;7.30;99.90;;;;;;5025968;28;19917;-56
2022/03/28 00:08:30;;;;;;;;;;;7.20;99.90;;;;;;5026218;28;19966;-56
2022/03/28 00:10:55;;;;;;;;;;;7.10;99.90;;;;;;5032278;28;19966;-56
2022/03/28 00:13:21;;;;;;;;;;;7.10;99.90;;;;;;5025267;28;19913;-56
2022/03/28 00:15:46;;;;;;;;;;;7.00;99.90;;;;;;5031334;28;20047;-54
2022/03/28 00:18:12;;;;;;;;;;;7.00;99.90;;;;;;5025371;28;20352;-56
2022/03/28 00:20:38;;;;;;;;;;;7.00;99.90;;;;;;5030984;28;19913;-53
2022/03/28 00:23:04;;;;;;;;;;;7.00;99.90;;;;;;5024812;28;20374;-55
2022/03/28 00:25:29;;;;;;;;;;;7.00;99.90;;;;;;5029532;28;20026;-53
2022/03/28 00:27:55;;;;;;;;;;;7.00;99.90;;;;;;5024822;28;19917;-55
2022/03/28 00:30:20;;;;;;;;;;;7.00;99.90;;;;;;5026871;28;19996;-53
2022/03/28 00:32:46;;;;;;;;;;;6.90;99.90;;;;;;5027910;28;20358;-54
2022/03/28 00:35:11;;;;;;;;;;;6.90;99.90;;;;;;5023129;28;19924;-51
2022/03/28 00:37:41;;;;;;;;;;;6.90;99.90;;;;;;5040668;28;19909;-53
2022/03/28 00:40:07;;;;;;;;;;;6.80;99.90;;;;;;5027674;28;19967;-54
2022/03/28 00:42:33;;;;;;;;;;;6.90;99.90;;;;;;5025933;28;19921;-55
2022/03/28 00:44:59;;;;;;;;;;;6.90;99.90;;;;;;5026341;28;20428;-54
2022/03/28 00:47:24;;;;;;;;;;;6.90;99.90;;;;;;5026220;28;19940;-55
2022/03/28 00:49:50;;;;;;;;;;;7.00;99.90;;;;;;5025947;28;19909;-52
2022/03/28 00:52:15;;;;;;;;;;;6.90;99.90;;;;;;5026072;28;19920;-56
2022/03/28 00:54:41;;;;;;;;;;;6.90;99.90;;;;;;5029658;28;19979;-53
2022/03/28 00:57:07;;;;;;;;;;;6.90;99.90;;;;;;5027877;28;19917;-53
2022/03/28 00:59:32;;;;;;;;;;;6.90;99.90;;;;;;5028015;28;19916;-53
2022/03/28 01:01:58;;;;;;;;;;;6.90;99.90;;;;;;5025057;28;20035;-55
2022/03/28 01:04:24;;;;;;;;;;;6.90;99.90;;;;;;5026213;28;19913;-54
2022/03/28 01:06:50;;;;;;;;;;;6.80;99.90;;;;;;5035419;28;20617;-55
2022/03/28 01:09:16;;;;;;;;;;;6.80;99.90;;;;;;5031778;28;19995;-54
2022/03/28 01:11:44;;;;;;;;;;;6.80;99.90;;;;;;5034205;28;19916;-55
2022/03/28 01:14:10;;;;;;;;;;;6.80;99.90;;;;;;5028492;28;19913;-55
2022/03/28 01:18:05;;;;;;;;;;;6.80;99.90;;;;;;5025193;28;19913;-55
2022/03/28 01:19:23;;;;;;;;;;;6.70;99.90;;;;;;5030435;28;19913;-56
2022/03/28 01:21:49;;;;;;;;;;;6.70;99.90;;;;;;5036716;28;19918;-56
2022/03/28 01:24:14;;;;;;;;;;;6.70;99.90;;;;;;5031106;28;20302;-55
2022/03/28 01:26:40;;;;;;;;;;;6.70;99.90;;;;;;5028585;28;19920;-56
2022/03/28 01:29:06;;;;;;;;;;;6.60;99.90;;;;;;5034607;28;19912;-57
2022/03/28 01:31:32;;;;;;;;;;;6.60;99.90;;;;;;5028680;28;19916;-53
2022/03/28 01:33:57;;;;;;;;;;;6.60;99.90;;;;;;5029848;28;19915;-52
2022/03/28 01:36:28;;;;;;;;;;;6.50;99.90;;;;;;5026541;28;20378;-54
2022/03/28 01:38:54;;;;;;;;;;;6.50;99.90;;;;;;5033835;28;20346;-53
2022/03/28 01:41:19;;;;;;;;;;;6.50;99.90;;;;;;5028590;28;19913;-54
2022/03/28 01:43:45;;;;;;;;;;;6.40;99.90;;;;;;5033859;28;19958;-55
2022/03/28 01:46:10;;;;;;;;;;;6.40;99.90;;;;;;5037677;28;19908;-52
2022/03/28 01:48:36;;;;;;;;;;;6.30;99.90;;;;;;5031064;28;20288;-56
2022/03/28 01:51:01;;;;;;;;;;;6.20;99.90;;;;;;5026426;28;20508;-54
2022/03/28 01:53:26;;;;;;;;;;;6.20;99.90;;;;;;5028752;28;20020;-54
2022/03/28 01:55:52;;;;;;;;;;;6.10;99.90;;;;;;5028726;28;19952;-54
2022/03/28 01:58:17;;;;;;;;;;;6.10;99.90;;;;;;5029760;28;19909;-53
2022/03/28 02:00:43;;;;;;;;;;;6.00;99.90;;;;;;5029031;28;19916;-53
2022/03/28 02:03:09;;;;;;;;;;;6.00;99.90;;;;;;5035604;28;19920;-55
2022/03/28 02:05:34;;;;;;;;;;;6.00;99.90;;;;;;5033346;28;19916;-55
2022/03/28 02:08:00;;;;;;;;;;;5.90;99.90;;;;;;5041439;28;19909;-53
2022/03/28 02:10:25;;;;;;;;;;;5.90;99.90;;;;;;5026550;28;20298;-54
2022/03/28 02:12:51;;;;;;;;;;;5.90;99.90;;;;;;5037657;28;19916;-52
2022/03/28 02:15:18;;;;;;;;;;;5.90;99.90;;;;;;5027981;28;19955;-56
2022/03/28 02:17:43;;;;;;;;;;;5.90;99.90;;;;;;5032730;28;19935;-56
2022/03/28 02:20:09;;;;;;;;;;;5.90;99.90;;;;;;5035261;28;20366;-56
2022/03/28 02:22:35;;;;;;;;;;;5.90;99.90;;;;;;5030166;28;19913;-56
2022/03/28 02:25:02;;;;;;;;;;;5.90;99.90;;;;;;5027629;28;20298;-55
2022/03/28 02:27:27;;;;;;;;;;;5.90;99.90;;;;;;5027378;28;19916;-53
2022/03/28 02:29:52;;;;;;;;;;;5.90;99.90;;;;;;5028759;28;19913;-56
2022/03/28 02:32:18;;;;;;;;;;;5.90;99.90;;;;;;5035489;28;19995;-56
2022/03/28 02:34:43;;;;;;;;;;;5.80;99.90;;;;;;5029054;28;19912;-56
2022/03/28 02:37:09;;;;;;;;;;;5.80;99.90;;;;;;5030028;28;19912;-56
2022/03/28 02:39:34;;;;;;;;;;;5.80;99.90;;;;;;5031546;28;20043;-57
2022/03/28 02:42:00;;;;;;;;;;;5.80;99.90;;;;;;5042490;28;20381;-57
2022/03/28 02:44:25;;;;;;;;;;;5.80;99.90;;;;;;5025790;28;20100;-54
2022/03/28 02:46:51;;;;;;;;;;;5.80;99.90;;;;;;5027964;28;19909;-56
2022/03/28 02:49:19;;;;;;;;;;;5.80;99.90;;;;;;5028505;28;19916;-56
2022/03/28 02:51:44;;;;;;;;;;;5.70;99.90;;;;;;5030266;28;20007;-56
2022/03/28 02:54:10;;;;;;;;;;;5.70;99.90;;;;;;5028987;28;20058;-57
2022/03/28 02:56:36;;;;;;;;;;;5.70;99.90;;;;;;5028379;28;20356;-56
2022/03/28 02:59:01;;;;;;;;;;;5.70;99.90;;;;;;5027719;28;20018;-56
2022/03/28 03:01:27;;;;;;;;;;;5.70;99.90;;;;;;5029052;28;19964;-57
2022/03/28 03:03:52;;;;;;;;;;;5.70;99.90;;;;;;5033405;28;19962;-55
2022/03/28 03:06:18;;;;;;;;;;;5.60;99.90;;;;;;5030465;28;20309;-56
2022/03/28 03:08:43;;;;;;;;;;;5.70;99.90;;;;;;5038826;28;20275;-57
2022/03/28 03:11:09;;;;;;;;;;;5.70;99.90;;;;;;5027684;28;19991;-57
2022/03/28 03:13:35;;;;;;;;;;;5.70;99.90;;;;;;5029722;28;20366;-57
2022/03/28 03:16:01;;;;;;;;;;;5.60;99.90;;;;;;5028231;28;19909;-56
2022/03/28 03:18:26;;;;;;;;;;;5.50;99.90;;;;;;5031202;28;19909;-56
2022/03/28 03:20:52;;;;;;;;;;;5.50;99.90;;;;;;5031324;28;19908;-56
2022/03/28 03:23:17;;;;;;;;;;;5.50;99.90;;;;;;5026886;28;19909;-56
2022/03/28 03:25:43;;;;;;;;;;;5.50;99.90;;;;;;5027872;28;20405;-56
2022/03/28 03:28:09;;;;;;;;;;;5.50;99.90;;;;;;5031369;28;20334;-56
2022/03/28 03:30:34;;;;;;;;;;;5.40;99.90;;;;;;5027222;28;19917;-56
2022/03/28 03:33:00;;;;;;;;;;;5.40;99.90;;;;;;5026401;28;19916;-57
2022/03/28 03:35:26;;;;;;;;;;;5.40;99.90;;;;;;5026637;28;20402;-54
2022/03/28 03:37:51;;;;;;;;;;;5.40;99.90;;;;;;5026065;28;19909;-54
2022/03/28 03:40:17;;;;;;;;;;;5.40;99.90;;;;;;5026132;28;20018;-52
2022/03/28 03:42:42;;;;;;;;;;;5.30;99.90;;;;;;5026798;28;19960;-57
2022/03/28 03:45:08;;;;;;;;;;;5.30;99.90;;;;;;5025855;28;20907;-56
2022/03/28 03:47:34;;;;;;;;;;;5.30;99.90;;;;;;5029440;28;19914;-57
2022/03/28 03:50:00;;;;;;;;;;;5.30;99.90;;;;;;5028525;28;19912;-55
2022/03/28 03:52:25;;;;;;;;;;;5.30;99.90;;;;;;5031915;28;19996;-56
2022/03/28 03:54:51;;;;;;;;;;;5.30;99.90;;;;;;5026112;28;19924;-56
2022/03/28 03:57:16;;;;;;;;;;;5.30;99.90;;;;;;5027191;28;19909;-57
2022/03/28 03:59:41;;;;;;;;;;;5.30;99.90;;;;;;5026834;28;19913;-54
2022/03/28 04:02:08;;;;;;;;;;;5.30;99.90;;;;;;5026468;28;20401;-56
2022/03/28 04:04:34;;;;;;;;;;;5.40;99.90;;;;;;5025470;28;19913;-52
2022/03/28 04:06:59;;;;;;;;;;;5.30;99.90;;;;;;5033837;28;20439;-55
2022/03/28 04:09:25;;;;;;;;;;;5.30;99.90;;;;;;5026691;28;19916;-57
2022/03/28 04:11:50;;;;;;;;;;;5.30;99.90;;;;;;5030450;28;19920;-55
2022/03/28 04:14:16;;;;;;;;;;;5.30;99.90;;;;;;5026911;28;19920;-56
2022/03/28 04:16:42;;;;;;;;;;;5.30;99.90;;;;;;5030267;28;19959;-56
2022/03/28 04:19:08;;;;;;;;;;;5.30;99.90;;;;;;5026676;28;19916;-56
2022/03/28 04:21:34;;;;;;;;;;;5.20;99.90;;;;;;5027756;28;19920;-56
2022/03/28 04:23:59;;;;;;;;;;;5.20;99.90;;;;;;5028800;28;19919;-55
2022/03/28 04:26:25;;;;;;;;;;;5.20;99.90;;;;;;5028865;28;19915;-56
2022/03/28 04:28:50;;;;;;;;;;;5.20;99.90;;;;;;5027821;28;19909;-56
2022/03/28 04:31:16;;;;;;;;;;;5.20;99.90;;;;;;5024364;28;19913;-56
2022/03/28 04:33:41;;;;;;;;;;;5.20;99.90;;;;;;5022311;28;19955;-56
2022/03/28 04:36:07;;;;;;;;;;;5.30;99.90;;;;;;5028677;28;20286;-55
2022/03/28 04:38:33;;;;;;;;;;;5.20;99.90;;;;;;5023500;28;19913;-55
2022/03/28 04:40:58;;;;;;;;;;;5.20;99.90;;;;;;5024430;28;19916;-56
2022/03/28 04:43:24;;;;;;;;;;;5.20;99.90;;;;;;5028064;28;19967;-54
2022/03/28 04:45:49;;;;;;;;;;;5.10;99.90;;;;;;5034578;28;20011;-55
2022/03/28 04:48:14;;;;;;;;;;;5.10;99.90;;;;;;5023891;28;19955;-56
2022/03/28 04:50:40;;;;;;;;;;;5.20;99.90;;;;;;5020196;28;20381;-54
2022/03/28 04:53:05;;;;;;;;;;;5.20;99.90;;;;;;5023828;28;19923;-56
2022/03/28 04:55:31;;;;;;;;;;;5.10;99.90;;;;;;5027164;28;19924;-56
2022/03/28 04:57:57;;;;;;;;;;;5.10;99.90;;;;;;5033148;28;19917;-55
2022/03/28 05:00:22;;;;;;;;;;;5.10;99.90;;;;;;5034046;28;19917;-56
2022/03/28 05:02:48;;;;;;;;;;;5.10;99.90;;;;;;5040083;28;19947;-55
2022/03/28 05:05:13;;;;;;;;;;;5.10;99.90;;;;;;5034233;28;19909;-55
2022/03/28 05:07:38;;;;;;;;;;;5.10;99.90;;;;;;5035566;28;19921;-54
2022/03/28 05:10:05;;;;;;;;;;;5.10;99.90;;;;;;5033647;28;19909;-54
2022/03/28 05:12:31;;;;;;;;;;;5.10;99.90;;;;;;5032212;28;19957;-55
2022/03/28 05:14:57;;;;;;;;;;;5.10;99.90;;;;;;5028723;28;19913;-55
2022/03/28 05:17:24;;;;;;;;;;;5.20;99.90;;;;;;5030279;28;19949;-54
2022/03/28 05:19:49;;;;;;;;;;;5.20;99.90;;;;;;5030523;28;20317;-55
2022/03/28 05:22:15;;;;;;;;;;;5.20;99.90;;;;;;5027418;28;19948;-55
2022/03/28 05:24:40;;;;;;;;;;;5.30;99.90;;;;;;5032280;28;19913;-56
2022/03/28 05:27:05;;;;;;;;;;;5.30;99.90;;;;;;5038549;28;19950;-55
2022/03/28 05:29:31;;;;;;;;;;;5.30;99.90;;;;;;5030282;28;19909;-55
2022/03/28 05:31:57;;;;;;;;;;;5.30;99.90;;;;;;5032663;28;19996;-56
2022/03/28 05:34:22;;;;;;;;;;;5.30;99.90;;;;;;5030830;28;19966;-55
2022/03/28 05:36:48;;;;;;;;;;;5.40;99.90;;;;;;5034209;28;19905;-55
2022/03/28 05:39:13;;;;;;;;;;;5.40;99.90;;;;;;5029127;28;20172;-55
2022/03/28 05:41:38;;;;;;;;;;;5.50;99.90;;;;;;5031819;28;20003;-56
2022/03/28 05:44:04;;;;;;;;;;;5.50;99.90;;;;;;5032204;28;19908;-56
2022/03/28 05:46:30;;;;;;;;;;;5.50;99.90;;;;;;5028953;28;20303;-56
2022/03/28 05:48:55;;;;;;;;;;;5.60;99.90;;;;;;5069479;22;20016;-73
2022/03/28 05:51:21;;;;;;;;;;;5.60;99.90;;;;;;5049708;28;20966;-73
2022/03/28 05:53:46;;;;;;;;;;;5.60;99.90;;;;;;5050231;28;19905;-73
2022/03/28 05:56:12;;;;;;;;;;;5.60;99.90;;;;;;5050285;28;19908;-73
2022/03/28 05:58:37;;;;;;;;;;;5.60;99.90;;;;;;5050951;28;19905;-70
2022/03/28 06:01:03;;;;;;;;;;;5.70;99.90;;;;;;5041240;28;19909;-70
2022/03/28 06:03:28;;;;;;;;;;;5.70;99.90;;;;;;5040750;28;19909;-70
2022/03/28 06:05:54;;;;;;;;;;;5.70;99.90;;;;;;5034229;28;20391;-72
2022/03/28 06:08:19;;;;;;;;;;;5.70;99.90;;;;;;5039298;28;19909;-69
2022/03/28 06:10:45;;;;;;;;;;;5.70;99.90;;;;;;5039873;28;19912;-69
2022/03/28 06:13:12;;;;;;;;;;;5.70;99.90;;;;;;5039598;28;20392;-69
2022/03/28 06:15:37;;;;;;;;;;;5.80;99.90;;;;;;5041132;28;19912;-69
2022/03/28 06:18:04;;;;;;;;;;;5.90;99.90;;;;;;5033279;28;20418;-69
2022/03/28 06:20:29;;;;;;;;;;;5.90;99.90;;;;;;5036069;28;19930;-72
2022/03/28 06:22:55;;;;;;;;;;;5.90;99.90;;;;;;5034486;28;19913;-70
2022/03/28 06:25:20;;;;;;;;;;;5.90;99.90;;;;;;5039904;28;19909;-68
2022/03/28 06:27:46;;;;;;;;;;;5.90;99.90;;;;;;5039094;28;20369;-68
2022/03/28 06:30:11;;;;;;;;;;;6.00;99.90;;;;;;5040458;28;19936;-67
2022/03/28 06:32:43;;;;;;;;;;;6.00;99.90;;;;;;5036809;28;19996;-72
2022/03/28 06:35:09;;;;;;;;;;;6.00;99.90;;;;;;5033518;28;19921;-71
2022/03/28 06:37:34;;;;;;;;;;;6.00;99.90;;;;;;5038759;28;19919;-74
2022/03/28 06:40:00;;;;;;;;;;;6.00;99.90;;;;;;5036088;28;20266;-75
2022/03/28 06:42:26;;;;;;;;;;;6.00;99.90;;;;;;5038666;28;20061;-73
2022/03/28 06:44:51;;;;;;;;;;;6.00;99.90;;;;;;5037525;28;20314;-73
2022/03/28 06:47:17;;;;;;;;;;;5.90;99.90;;;;;;5038405;28;19996;-72
2022/03/28 06:49:42;;;;;;;;;;;5.90;99.90;;;;;;5040657;28;20319;-71
2022/03/28 06:52:08;;;;;;;;;;;6.00;99.90;;;;;;5038582;28;20035;-71
2022/03/28 06:54:35;;;;;;;;;;;6.00;99.90;;;;;;5037270;28;20281;-72
2022/03/28 06:57:02;;;;;;;;;;;6.00;99.90;;;;;;5037528;28;19909;-71
2022/03/28 06:59:28;;;;;;;;;;;6.10;99.90;;;;;;5039413;28;19920;-75
2022/03/28 07:01:54;;;;;;;;;;;6.20;99.90;;;;;;5037348;28;20277;-72
2022/03/28 07:04:21;;;;;;;;;;;6.20;99.90;;;;;;5040156;28;20376;-73
2022/03/28 07:06:47;;;;;;;;;;;6.20;99.90;;;;;;5036566;28;20316;-70
2022/03/28 07:09:13;;;;;;;;;;;6.30;99.90;;;;;;5038832;28;19963;-71
2022/03/28 07:11:38;;;;;;;;;;;6.30;99.90;;;;;;5036083;28;20371;-72
2022/03/28 07:14:04;;;;;;;;;;;6.40;99.90;;;;;;5038908;28;19939;-71
2022/03/28 07:16:29;;;;;;;;;;;6.40;99.90;;;;;;5036037;28;19972;-68
2022/03/28 07:18:54;;;;;;;;;;;6.40;99.90;;;;;;5036158;28;19917;-67
2022/03/28 07:21:20;;;;;;;;;;;6.50;99.90;;;;;;5037565;28;19967;-72
2022/03/28 07:23:45;;;;;;;;;;;6.60;99.90;;;;;;5037546;28;19917;-68
2022/03/28 07:26:11;;;;;;;;;;;6.70;99.90;;;;;;5038003;28;20308;-70
2022/03/28 07:28:39;;;;;;;;;;;6.80;99.90;;;;;;5036160;28;19999;-70
2022/03/28 07:31:08;;;;;;;;;;;6.80;99.90;;;;;;5035625;28;20002;-69
2022/03/28 07:33:33;;;;;;;;;;;6.80;99.90;;;;;;5038336;28;19966;-69
2022/03/28 07:35:59;;;;;;;;;;;6.80;99.90;;;;;;5036915;28;19912;-70
2022/03/28 07:38:24;;;;;;;;;;;6.70;99.90;;;;;;5039415;28;19905;-67
2022/03/28 07:40:49;;;;;;;;;;;6.60;99.90;;;;;;5036108;28;19959;-69
2022/03/28 07:43:15;;;;;;;;;;;6.50;99.90;;;;;;5036662;28;19978;-69
2022/03/28 07:45:41;;;;;;;;;;;6.50;99.90;;;;;;5036863;28;19968;-69
2022/03/28 07:48:07;;;;;;;;;;;6.60;99.90;;;;;;5036873;28;19912;-69
2022/03/28 07:50:32;;;;;;;;;;;6.70;99.90;;;;;;5036956;28;19921;-69
2022/03/28 07:52:58;;;;;;;;;;;6.80;99.90;;;;;;5037955;28;19971;-68
2022/03/28 07:55:26;;;;;;;;;;;7.00;99.90;;;;;;5038514;28;20436;-68
2022/03/28 07:57:51;;;;;;;;;;;7.10;99.90;;;;;;5036472;28;20005;-69
2022/03/28 08:00:17;;;;;;;;;;;7.10;99.90;;;;;;5035957;28;20035;-69
2022/03/28 08:02:43;;;;;;;;;;;7.10;99.90;;;;;;5036403;28;19999;-68
2022/03/28 08:05:08;;;;;;;;;;;7.20;99.90;;;;;;5036166;28;19947;-69
2022/03/28 08:07:34;;;;;;;;;;;7.20;99.90;;;;;;5036821;28;20301;-70
2022/03/28 08:10:00;;;;;;;;;;;7.20;99.90;;;;;;5035708;28;19917;-68
2022/03/28 08:12:26;;;;;;;;;;;7.20;99.90;;;;;;5037056;28;19916;-66
2022/03/28 08:14:51;;;;;;;;;;;7.10;99.90;;;;;;5036377;28;19924;-68
2022/03/28 08:17:19;;;;;;;;;;;7.20;99.90;;;;;;5035855;28;20357;-67
2022/03/28 08:19:45;;;;;;;;;;;7.20;99.90;;;;;;5036476;28;19916;-67
2022/03/28 08:22:10;;;;;;;;;;;7.30;99.90;;;;;;5033822;28;19916;-68
2022/03/28 08:24:36;;;;;;;;;;;7.30;99.90;;;;;;5037262;28;20004;-67
2022/03/28 08:27:01;;;;;;;;;;;7.20;99.90;;;;;;5037943;28;19944;-68
2022/03/28 08:29:27;;;;;;;;;;;7.30;99.90;;;;;;5038130;28;20403;-73
2022/03/28 08:31:52;;;;;;;;;;;7.20;99.90;;;;;;5038883;28;19912;-71
2022/03/28 08:34:18;;;;;;;;;;;7.20;99.90;;;;;;5039775;28;20071;-70
2022/03/28 08:36:44;;;;;;;;;;;7.10;99.90;;;;;;5042092;28;19979;-68
2022/03/28 08:39:09;;;;;;;;;;;7.20;99.90;;;;;;5039089;28;19912;-69
2022/03/28 08:41:35;;;;;;;;;;;7.30;99.90;;;;;;5041766;28;19915;-71
2022/03/28 08:44:01;;;;;;;;;;;7.40;99.90;;;;;;5040863;28;19908;-70
2022/03/28 08:46:27;;;;;;;;;;;7.50;99.90;;;;;;5038262;28;19915;-69
2022/03/28 08:48:53;;;;;;;;;;;7.60;99.90;;;;;;5040315;28;19993;-69
2022/03/28 08:51:19;;;;;;;;;;;7.70;99.90;;;;;;5041617;28;19996;-71
2022/03/28 08:53:45;;;;;;;;;;;7.70;99.90;;;;;;5041467;28;20278;-70
2022/03/28 08:56:11;;;;;;;;;;;7.70;99.90;;;;;;5040894;28;20274;-71
2022/03/28 08:58:36;;;;;;;;;;;7.70;99.90;;;;;;5041620;28;19904;-72
2022/03/28 09:01:02;;;;;;;;;;;7.70;99.90;;;;;;5040331;28;20404;-75
2022/03/28 09:03:34;;;;;;;;;;;7.90;99.90;;;;;;5038137;28;19915;-73
2022/03/28 09:06:00;;;;;;;;;;;8.00;99.90;;;;;;5039446;28;20448;-73
2022/03/28 09:08:25;;;;;;;;;;;8.10;99.90;;;;;;5039760;28;19980;-68
2022/03/28 09:10:51;;;;;;;;;;;8.10;99.90;;;;;;5041551;28;20317;-72
2022/03/28 09:13:16;;;;;;;;;;;8.10;99.90;;;;;;5041252;28;19909;-70
2022/03/28 09:15:53;;;;;;;;;;;8.20;99.90;;;;;;5038543;28;19916;-76
2022/03/28 09:18:24;;;;;;;;;;;8.30;99.90;;;;;;5040730;28;19913;-72
2022/03/28 09:21:00;;;;;;;;;;;8.30;99.90;;;;;;5038046;28;20278;-73
2022/03/28 09:23:31;;;;;;;;;;;8.40;99.90;;;;;;5040235;28;19925;-72
2022/03/28 09:25:57;;;;;;;;;;;8.40;99.90;;;;;;5040734;28;19909;-70
2022/03/28 09:28:24;;;;;;;;;;;8.40;99.90;;;;;;5039631;28;19912;-69
2022/03/28 09:30:49;;;;;;;;;;;8.30;99.90;;;;;;5039593;28;19913;-70
2022/03/28 09:33:17;;;;;;;;;;;8.30;99.90;;;;;;5039707;28;19908;-73
2022/03/28 09:35:46;;;;;;;;;;;8.30;99.90;;;;;;5041209;28;19917;-69
2022/03/28 09:38:12;;;;;;;;;;;8.30;99.90;;;;;;5039668;28;19921;-71
2022/03/28 09:40:39;;;;;;;;;;;8.30;99.90;;;;;;5041102;28;19913;-72
2022/03/28 09:43:19;;;;;;;;;;;8.30;99.90;;;;;;5037175;28;19913;-70
2022/03/28 09:45:51;;;;;;;;;;;8.40;99.90;;;;;;5038519;28;19959;-72
2022/03/28 09:48:19;;;;;;;;;;;8.50;99.90;;;;;;5039177;28;19935;-73
2022/03/28 09:50:46;;;;;;;;;;;8.70;99.90;;;;;;5041225;28;19916;-71
2022/03/28 09:53:15;;;;;;;;;;;8.80;99.90;;;;;;5037351;28;19913;-74
2022/03/28 09:55:58;;;;;;;;;;;8.90;99.90;;;;;;5039910;28;19922;-74
2022/03/28 09:58:30;;;;;;;;;;;8.80;99.90;;;;;;5038331;28;19912;-75
2022/03/28 10:00:55;;;;;;;;;;;8.70;99.90;;;;;;5038417;28;20269;-71
2022/03/28 10:03:22;;;;;;;;;;;8.60;99.90;;;;;;5038923;28;19963;-72
2022/03/28 10:05:48;;;;;;;;;;;8.60;99.90;;;;;;5035533;28;19913;-69
2022/03/28 10:08:13;;;;;;;;;;;8.60;99.90;;;;;;5032071;28;20375;-76
2022/03/28 10:10:38;;;;;;;;;;;8.80;99.90;;;;;;5037417;28;19974;-75
2022/03/28 10:13:04;;;;;;;;;;;8.80;99.90;;;;;;5040323;28;19912;-75
2022/03/28 10:15:30;;;;;;;;;;;8.70;99.90;;;;;;5041258;28;20012;-75
2022/03/28 10:17:55;;;;;;;;;;;8.60;99.90;;;;;;5038480;28;19909;-75
2022/03/28 10:20:21;;;;;;;;;;;8.60;99.90;;;;;;5041040;28;19916;-75
2022/03/28 10:22:48;;;;;;;;;;;8.80;99.90;;;;;;5041050;28;19941;-76
2022/03/28 10:25:19;;;;;;;;;;;8.90;99.90;;;;;;5040996;28;19905;-76
2022/03/28 10:27:45;;;;;;;;;;;9.00;99.90;;;;;;5040698;28;19931;-76
2022/03/28 10:30:15;;;;;;;;;;;9.10;99.90;;;;;;5041146;28;19908;-76
2022/03/28 10:32:41;;;;;;;;;;;9.10;99.90;;;;;;5041548;28;19970;-76
2022/03/28 10:35:07;;;;;;;;;;;9.10;99.90;;;;;;5039231;28;19916;-76
2022/03/28 10:37:39;;;;;;;;;;;9.10;99.90;;;;;;5040435;28;19908;-76
2022/03/28 10:40:24;;;;;;;;;;;9.30;99.90;;;;;;5040129;28;19958;-76
2022/03/28 10:43:11;;;;;;;;;;;9.40;99.90;;;;;;5038926;28;20331;-76
2022/03/28 10:45:49;;;;;;;;;;;9.50;99.90;;;;;;5034866;28;20146;-76
2022/03/28 10:48:15;;;;;;;;;;;9.60;99.90;;;;;;5038510;28;20377;-76
2022/03/28 10:50:50;;;;;;;;;;;9.70;99.90;;;;;;5038740;28;19923;-71
2022/03/28 10:53:26;;;;;;;;;;;9.70;99.90;;;;;;5036968;28;19999;-75
2022/03/28 10:56:03;;;;;;;;;;;9.70;99.90;;;;;;5038708;28;19917;-74
2022/03/28 10:58:36;;;;;;;;;;;9.80;99.90;;;;;;5038472;28;19909;-76
2022/03/28 11:01:07;;;;;;;;;;;9.90;99.90;;;;;;5034954;28;19912;-78
2022/03/28 11:03:36;;;;;;;;;;;10.00;99.90;;;;;;5039207;28;19917;-81
2022/03/28 11:06:02;;;;;;;;;;;10.10;99.90;;;;;;5037978;28;19913;-78
2022/03/28 11:08:32;;;;;;;;;;;10.20;99.90;;;;;;5038057;28;19935;-77
2022/03/28 11:11:15;;;;;;;;;;;10.30;99.90;;;;;;5037725;28;20537;-77
2022/03/28 11:13:41;;;;;;;;;;;10.40;99.90;;;;;;5038306;28;20259;-79
2022/03/28 11:16:16;;;;;;;;;;;10.40;99.90;;;;;;5033817;28;19913;-78
2022/03/28 11:18:42;;;;;;;;;;;10.50;99.90;;;;;;5038459;28;19909;-75
2022/03/28 11:21:09;;;;;;;;;;;10.50;99.90;;;;;;5035884;28;19978;-76
2022/03/28 11:23:37;;;;;;;;;;;10.60;99.90;;;;;;5037593;28;19916;-76
2022/03/28 11:26:03;;;;;;;;;;;10.60;99.90;;;;;;5037048;28;19928;-76
2022/03/28 11:28:29;;;;;;;;;;;10.60;99.90;;;;;;5038861;28;19996;-75
2022/03/28 11:30:59;;;;;;;;;;;10.70;99.90;;;;;;5038118;28;20495;-77
2022/03/28 11:33:28;;;;;;;;;;;10.80;99.90;;;;;;5039486;28;19913;-77
2022/03/28 11:35:55;;;;;;;;;;;10.80;99.90;;;;;;5038465;28;20370;-76
2022/03/28 11:38:22;;;;;;;;;;;10.90;99.90;;;;;;5039544;28;20023;-70
2022/03/28 11:40:47;;;;;;;;;;;10.90;99.90;;;;;;5036084;28;20070;-74
2022/03/28 11:43:13;;;;;;;;;;;10.90;99.90;;;;;;5038252;28;20367;-74
2022/03/28 11:45:48;;;;;;;;;;;11.00;99.90;;;;;;5035715;28;19953;-73
2022/03/28 11:48:17;;;;;;;;;;;11.00;99.90;;;;;;5035820;28;19913;-74
2022/03/28 11:50:43;;;;;;;;;;;11.10;99.90;;;;;;5037554;28;19917;-75
2022/03/28 11:53:11;;;;;;;;;;;11.20;99.90;;;;;;5038084;28;20061;-73
2022/03/28 11:55:37;;;;;;;;;;;11.30;99.90;;;;;;5037029;28;19966;-73
2022/03/28 11:58:19;;;;;;;;;;;11.40;99.90;;;;;;5038889;28;19917;-74
2022/03/28 12:00:47;;;;;;;;;;;11.40;99.90;;;;;;5037352;28;19920;-73
2022/03/28 12:03:14;;;;;;;;;;;11.50;99.90;;;;;;5036024;28;19920;-72
2022/03/28 12:05:40;;;;;;;;;;;11.60;99.80;;;;;;5038522;28;19917;-77
2022/03/28 12:08:08;;;;;;;;;;;11.70;99.70;;;;;;5037578;28;19966;-78
2022/03/28 12:10:35;;;;;;;;;;;11.70;99.70;;;;;;5035775;28;20285;-75
2022/03/28 12:13:02;;;;;;;;;;;11.80;99.70;;;;;;5035753;28;20365;-73
2022/03/28 12:15:30;;;;;;;;;;;11.80;99.70;;;;;;5034023;28;19921;-76
2022/03/28 12:17:59;;;;;;;;;;;11.80;99.70;;;;;;5035248;28;19916;-74
2022/03/28 12:20:28;;;;;;;;;;;11.90;99.70;;;;;;5034648;28;19912;-77
2022/03/28 12:22:54;;;;;;;;;;;12.00;99.70;;;;;;5035561;28;20345;-81
2022/03/28 12:25:24;;;;;;;;;;;12.00;99.60;;;;;;5031406;28;19996;-77
2022/03/28 12:27:50;;;;;;;;;;;12.00;99.50;;;;;;5031837;28;19908;-78
2022/03/28 12:30:16;;;;;;;;;;;12.00;99.60;;;;;;5032814;28;19913;-73
2022/03/28 12:32:43;;;;;;;;;;;12.10;99.50;;;;;;5032928;28;20285;-72
2022/03/28 12:35:09;;;;;;;;;;;12.10;99.60;;;;;;5036207;28;19916;-73
2022/03/28 12:37:36;;;;;;;;;;;12.10;99.60;;;;;;5037724;28;19992;-73
2022/03/28 12:40:01;;;;;;;;;;;12.20;99.70;;;;;;5036443;28;20058;-74
2022/03/28 12:42:27;;;;;;;;;;;12.30;99.60;;;;;;5035550;28;19996;-74
2022/03/28 12:44:54;;;;;;;;;;;12.30;99.40;;;;;;5037321;28;20384;-72
2022/03/28 12:47:19;;;;;;;;;;;12.30;99.30;;;;;;5037551;28;19995;-75
2022/03/28 12:49:45;;;;;;;;;;;12.30;99.40;;;;;;5035045;28;20003;-67
2022/03/28 12:52:11;;;;;;;;;;;12.40;99.60;;;;;;5034367;28;19919;-70
2022/03/28 12:54:37;;;;;;;;;;;12.60;99.40;;;;;;5036201;28;19912;-72
2022/03/28 12:57:03;;;;;;;;;;;12.60;99.00;;;;;;5036848;28;20370;-73
2022/03/28 12:59:33;;;;;;;;;;;12.70;99.10;;;;;;5035660;28;19913;-73
2022/03/28 13:02:08;;;;;;;;;;;12.70;98.90;;;;;;5034696;28;20435;-74
2022/03/28 13:04:49;;;;;;;;;;;12.70;99.00;;;;;;5035836;28;19913;-71
2022/03/28 13:07:18;;;;;;;;;;;12.80;98.60;;;;;;5035508;28;20200;-71
2022/03/28 13:09:54;;;;;;;;;;;12.80;98.50;;;;;;5036215;28;19920;-70
2022/03/28 13:12:20;;;;;;;;;;;12.90;98.50;;;;;;5035315;28;20052;-73
2022/03/28 13:14:49;;;;;;;;;;;13.00;98.30;;;;;;5036646;28;20007;-72
2022/03/28 13:17:15;;;;;;;;;;;13.00;98.30;;;;;;5034520;28;19912;-71
2022/03/28 13:19:41;;;;;;;;;;;12.90;97.90;;;;;;5038005;28;20303;-72
2022/03/28 13:22:08;;;;;;;;;;;12.80;98.10;;;;;;5034419;28;20325;-76
2022/03/28 13:24:34;;;;;;;;;;;12.80;98.40;;;;;;5041120;28;20058;-76
2022/03/28 13:29:48;;;;;;;;;;;12.90;97.90;;;;;;5041058;28;20420;-76
2022/03/28 13:32:13;;;;;;;;;;;12.90;97.90;;;;;;5037080;28;19908;-73
2022/03/28 13:34:39;;;;;;;;;;;13.00;98.00;;;;;;5040160;28;20463;-74
2022/03/28 13:37:05;;;;;;;;;;;13.10;97.80;;;;;;5038095;28;19908;-75
2022/03/28 13:39:32;;;;;;;;;;;13.10;97.70;;;;;;5039748;28;20173;-75
2022/03/28 13:41:57;;;;;;;;;;;13.20;97.40;;;;;;5038404;28;20324;-77
2022/03/28 13:44:22;;;;;;;;;;;13.10;97.40;;;;;;5040060;28;19913;-79
2022/03/28 13:46:49;;;;;;;;;;;13.20;97.50;;;;;;5039698;28;20022;-77
2022/03/28 13:49:14;;;;;;;;;;;13.20;97.40;;;;;;5040165;28;19988;-77
2022/03/28 13:51:40;;;;;;;;;;;13.30;97.30;;;;;;5040332;28;20030;-72
2022/03/28 13:54:06;;;;;;;;;;;13.30;97.00;;;;;;5038479;28;19909;-73
2022/03/28 13:56:32;;;;;;;;;;;13.40;97.30;;;;;;5040487;28;19913;-73
2022/03/28 13:58:58;;;;;;;;;;;13.50;96.40;;;;;;5037130;28;20389;-72
2022/03/28 14:01:27;;;;;;;;;;;13.50;96.60;;;;;;5037932;28;19939;-75
2022/03/28 14:03:54;;;;;;;;;;;13.40;96.90;;;;;;5038710;28;19913;-75
2022/03/28 14:06:19;;;;;;;;;;;13.40;96.80;;;;;;5039156;28;20124;-74
2022/03/28 14:08:45;;;;;;;;;;;13.40;96.70;;;;;;5036724;28;19995;-71
2022/03/28 14:11:11;;;;;;;;;;;13.40;96.70;;;;;;5039232;28;20098;-72
2022/03/28 14:13:37;;;;;;;;;;;13.50;96.60;;;;;;5035705;28;20007;-73
2022/03/28 14:16:03;;;;;;;;;;;13.50;96.30;;;;;;5034352;28;19917;-73
2022/03/28 14:18:28;;;;;;;;;;;13.50;96.10;;;;;;5037147;28;20289;-73
2022/03/28 14:20:54;;;;;;;;;;;13.60;96.10;;;;;;5037975;28;19912;-72
2022/03/28 14:23:19;;;;;;;;;;;13.70;95.80;;;;;;5038485;28;19909;-73
2022/03/28 14:25:45;;;;;;;;;;;13.70;95.80;;;;;;5040450;28;19909;-72